Time;durP1;ratioP1;P1;durP2;ratioP2;P2;SDS_P1;SDS_P2;PMS_P1;PMS_P2;Temp;Humidity;BMP_temperature;BMP_pressure;BME280_temperature;BME280_humidity;BME280_pressure;Samples;Min_cycle;Max_cycle;Signal;HPM_P1;HPM_P2
2023/03/26 00:01:32;;;;;;;13.37;4.37;;;11.00;99.90;;;;;;5071033;28;20888;-73
2023/03/26 00:03:59;;;;;;;12.07;4.50;;;11.00;99.90;;;;;;5074556;28;20438;-73
2023/03/26 00:06:29;;;;;;;10.70;4.55;;;11.00;99.90;;;;;;5054400;28;21018;-73
2023/03/26 00:08:57;;;;;;;8.82;4.20;;;11.00;99.90;;;;;;5071092;28;20411;-73
2023/03/26 00:11:27;;;;;;;11.95;4.70;;;11.00;99.90;;;;;;5074002;28;20447;-73
2023/03/26 00:13:57;;;;;;;7.28;4.00;;;11.00;99.90;;;;;;5071519;28;20513;-73
2023/03/26 00:16:30;;;;;;;9.82;4.30;;;11.10;99.90;;;;;;5072089;28;20419;-73
2023/03/26 00:18:58;;;;;;;9.43;4.40;;;11.00;99.90;;;;;;5073580;28;20457;-74
2023/03/26 00:21:27;;;;;;;8.43;4.55;;;11.00;99.90;;;;;;5074667;28;20494;-73
2023/03/26 00:24:03;;;;;;;7.32;4.40;;;11.00;99.90;;;;;;5069593;28;20767;-73
2023/03/26 00:26:33;;;;;;;9.38;4.53;;;11.00;99.90;;;;;;5071198;28;21092;-73
2023/03/26 00:29:02;;;;;;;9.05;4.38;;;11.00;99.90;;;;;;5069360;28;20512;-73
2023/03/26 00:31:28;;;;;;;11.38;4.25;;;10.90;99.90;;;;;;5074423;28;20885;-73
2023/03/26 00:33:55;;;;;;;8.57;3.63;;;10.90;99.90;;;;;;5077215;28;20416;-73
2023/03/26 00:36:26;;;;;;;6.97;3.50;;;10.90;99.90;;;;;;5070797;28;20963;-73
2023/03/26 00:38:53;;;;;;;8.48;3.65;;;10.80;99.90;;;;;;5069365;28;20408;-73
2023/03/26 00:41:24;;;;;;;7.68;3.25;;;10.70;99.90;;;;;;5069096;28;20424;-73
2023/03/26 00:43:57;;;;;;;9.68;3.20;;;10.70;99.90;;;;;;5098092;27;20417;-73
2023/03/26 00:46:26;;;;;;;8.55;3.17;;;10.60;99.90;;;;;;5067147;28;20553;-73
2023/03/26 00:48:57;;;;;;;7.23;3.40;;;10.60;99.90;;;;;;5069298;28;20419;-74
2023/03/26 00:51:25;;;;;;;6.38;3.40;;;10.70;99.90;;;;;;5070710;28;20476;-73
2023/03/26 00:53:51;;;;;;;6.95;2.92;;;10.70;99.90;;;;;;5071103;28;20464;-73
2023/03/26 00:56:18;;;;;;;6.07;3.10;;;10.80;99.90;;;;;;5066680;28;20506;-73
2023/03/26 00:58:46;;;;;;;6.60;3.20;;;10.80;99.90;;;;;;5069959;28;20422;-73
2023/03/26 01:01:19;;;;;;;6.68;2.90;;;10.80;99.90;;;;;;5069167;28;20408;-73
2023/03/26 01:03:46;;;;;;;7.70;3.17;;;10.80;99.90;;;;;;5069396;28;20533;-73
2023/03/26 01:06:26;;;;;;;6.15;3.00;;;10.70;99.90;;;;;;5073266;28;20956;-73
2023/03/26 01:08:58;;;;;;;5.93;2.72;;;10.70;99.90;;;;;;5074813;28;20419;-73
2023/03/26 01:11:30;;;;;;;5.97;2.75;;;10.70;99.90;;;;;;5072574;28;20418;-73
2023/03/26 01:14:07;;;;;;;8.63;3.22;;;10.70;99.90;;;;;;5104268;27;20523;-73
2023/03/26 01:17:00;;;;;;;5.85;2.90;;;10.70;99.90;;;;;;5104760;27;20416;-72
2023/03/26 01:19:57;;;;;;;5.77;2.70;;;10.80;99.90;;;;;;5075367;28;20426;-73
2023/03/26 01:22:26;;;;;;;8.07;3.03;;;10.80;99.90;;;;;;5086845;28;20953;-72
2023/03/26 01:24:55;;;;;;;8.18;2.92;;;10.70;99.90;;;;;;5073932;28;20954;-72
2023/03/26 01:27:47;;;;;;;7.75;3.17;;;10.60;99.90;;;;;;5075082;28;20488;-73
2023/03/26 01:30:19;;;;;;;6.70;2.85;;;10.60;99.90;;;;;;5074797;28;20406;-72
2023/03/26 01:33:00;;;;;;;6.00;2.80;;;10.50;99.90;;;;;;5070927;28;20420;-73
2023/03/26 01:35:57;;;;;;;6.72;2.70;;;10.50;99.90;;;;;;5073439;28;20423;-73
2023/03/26 01:38:58;;;;;;;9.23;2.90;;;10.50;99.90;;;;;;5071427;28;20470;-73
2023/03/26 01:41:47;;;;;;;6.70;2.85;;;10.60;99.90;;;;;;5074860;28;20427;-73
2023/03/26 01:44:33;;;;;;;6.47;2.90;;;10.60;99.90;;;;;;5073443;28;20440;-73
2023/03/26 01:47:00;;;;;;;5.80;2.75;;;10.50;99.90;;;;;;5073125;28;20504;-73
2023/03/26 01:49:29;;;;;;;8.68;3.38;;;10.50;99.90;;;;;;5052865;28;20514;-73
2023/03/26 01:51:58;;;;;;;5.85;2.53;;;10.50;99.90;;;;;;5069123;28;20565;-73
2023/03/26 01:54:30;;;;;;;6.70;2.90;;;10.40;99.90;;;;;;5072048;28;20418;-73
2023/03/26 01:57:22;;;;;;;7.90;2.83;;;10.50;99.90;;;;;;5077729;28;20457;-73
2023/03/26 02:00:10;;;;;;;8.80;3.05;;;10.40;99.90;;;;;;5073287;28;20788;-73
2023/03/26 02:02:53;;;;;;;5.57;2.70;;;10.40;99.90;;;;;;5072513;28;20412;-73
2023/03/26 02:05:46;;;;;;;6.15;2.80;;;10.40;99.90;;;;;;5072125;28;20420;-73
2023/03/26 02:08:22;;;;;;;5.72;2.70;;;10.40;99.90;;;;;;5075086;28;21118;-73
2023/03/26 02:10:58;;;;;;;10.23;3.07;;;10.50;99.90;;;;;;5074080;28;20443;-73
2023/03/26 02:13:26;;;;;;;6.07;2.80;;;10.50;99.90;;;;;;5074887;28;20465;-73
2023/03/26 02:16:02;;;;;;;6.50;2.90;;;10.50;99.90;;;;;;5071631;28;20795;-73
2023/03/26 02:18:38;;;;;;;7.28;2.92;;;10.50;99.90;;;;;;5070030;28;21363;-73
2023/03/26 02:21:11;;;;;;;5.45;2.90;;;10.50;99.90;;;;;;5058153;28;20509;-73
2023/03/26 02:23:45;;;;;;;6.05;2.85;;;10.40;99.90;;;;;;5072077;28;20502;-73
2023/03/26 02:26:18;;;;;;;5.72;2.90;;;10.50;99.90;;;;;;5091100;27;20781;-73
2023/03/26 02:28:44;;;;;;;7.50;2.87;;;10.40;99.90;;;;;;5071822;28;20476;-73
2023/03/26 02:31:12;;;;;;;5.88;3.03;;;10.40;99.90;;;;;;5078150;28;20417;-73
2023/03/26 02:33:39;;;;;;;5.03;2.70;;;10.40;99.90;;;;;;5073750;28;20508;-73
2023/03/26 02:36:07;;;;;;;6.40;2.97;;;10.40;99.90;;;;;;5072301;28;20425;-73
2023/03/26 02:38:34;;;;;;;9.30;3.25;;;10.40;99.90;;;;;;5071515;28;20481;-73
2023/03/26 02:41:01;;;;;;;6.32;2.83;;;10.40;99.90;;;;;;5074159;28;20413;-73
2023/03/26 02:43:28;;;;;;;7.20;2.90;;;10.40;99.90;;;;;;5070558;28;20426;-73
2023/03/26 02:45:54;;;;;;;6.18;3.13;;;10.50;99.90;;;;;;5073556;28;20419;-73
2023/03/26 02:48:21;;;;;;;5.00;2.90;;;10.40;99.90;;;;;;5075390;28;20843;-73
2023/03/26 02:50:49;;;;;;;7.85;3.00;;;10.40;99.90;;;;;;5057993;28;20924;-73
2023/03/26 02:53:20;;;;;;;6.03;3.00;;;10.50;99.90;;;;;;5104548;27;20461;-73
2023/03/26 02:55:47;;;;;;;6.57;3.13;;;10.40;99.90;;;;;;5071994;28;20511;-73
2023/03/26 02:58:16;;;;;;;6.47;3.10;;;10.40;99.90;;;;;;5072745;28;20447;-73
2023/03/26 03:00:45;;;;;;;8.00;3.20;;;10.40;99.90;;;;;;5104108;27;20414;-73
2023/03/26 03:03:15;;;;;;;7.07;3.43;;;10.40;99.90;;;;;;5071119;28;20425;-73
2023/03/26 03:05:47;;;;;;;7.95;3.03;;;10.30;99.90;;;;;;5086995;27;20425;-73
2023/03/26 03:08:13;;;;;;;7.07;3.30;;;10.40;99.90;;;;;;5054605;28;20420;-73
2023/03/26 03:10:40;;;;;;;5.55;3.17;;;10.40;99.90;;;;;;5056841;28;20463;-73
2023/03/26 03:13:06;;;;;;;5.72;3.00;;;10.40;99.90;;;;;;5075266;28;20415;-73
2023/03/26 03:15:33;;;;;;;5.70;3.22;;;10.40;99.90;;;;;;5071631;28;20939;-73
2023/03/26 03:18:00;;;;;;;7.45;3.40;;;10.40;99.90;;;;;;5073105;28;20827;-73
2023/03/26 03:20:26;;;;;;;7.90;3.60;;;10.40;99.90;;;;;;5072082;28;20437;-73
2023/03/26 03:22:52;;;;;;;7.60;3.20;;;10.40;99.90;;;;;;5073763;28;20448;-73
2023/03/26 03:25:21;;;;;;;5.88;3.20;;;10.40;99.90;;;;;;5071663;28;20409;-73
2023/03/26 03:27:47;;;;;;;10.40;3.63;;;10.40;99.90;;;;;;5060387;28;20442;-73
2023/03/26 03:30:13;;;;;;;6.35;3.25;;;10.30;99.90;;;;;;5068942;28;20419;-73
2023/03/26 03:32:39;;;;;;;6.97;3.40;;;10.30;99.90;;;;;;5071094;28;20412;-73
2023/03/26 03:35:06;;;;;;;6.68;3.53;;;10.30;99.90;;;;;;5051303;28;20419;-73
2023/03/26 03:37:33;;;;;;;7.30;3.85;;;10.30;99.90;;;;;;5074122;28;20851;-73
2023/03/26 03:39:59;;;;;;;5.32;3.53;;;10.30;99.90;;;;;;5070967;28;20394;-73
2023/03/26 03:42:26;;;;;;;7.10;3.60;;;10.30;99.90;;;;;;5072202;28;20413;-73
2023/03/26 03:44:52;;;;;;;7.03;3.38;;;10.20;99.90;;;;;;5072338;28;20409;-73
2023/03/26 03:47:19;;;;;;;7.13;3.53;;;10.10;99.90;;;;;;5068995;28;20439;-73
2023/03/26 03:49:45;;;;;;;9.07;3.53;;;10.00;99.90;;;;;;5060143;28;20920;-73
2023/03/26 03:52:11;;;;;;;6.88;3.75;;;10.00;99.90;;;;;;5072198;28;20494;-73
2023/03/26 03:54:37;;;;;;;5.32;3.17;;;9.90;99.90;;;;;;5073032;28;20462;-73
2023/03/26 03:57:03;;;;;;;6.65;3.40;;;9.90;99.90;;;;;;5072278;28;20496;-73
2023/03/26 03:59:30;;;;;;;7.35;3.30;;;9.90;99.90;;;;;;5077005;28;20418;-73
2023/03/26 04:01:56;;;;;;;5.25;3.35;;;9.90;99.90;;;;;;5068205;28;20406;-73
2023/03/26 04:04:23;;;;;;;7.75;3.53;;;9.90;99.90;;;;;;5076671;28;20424;-73
2023/03/26 04:06:51;;;;;;;6.43;3.20;;;9.90;99.90;;;;;;5071703;28;20425;-73
2023/03/26 04:09:18;;;;;;;7.22;3.40;;;9.90;99.90;;;;;;5054296;28;20416;-73
2023/03/26 04:11:44;;;;;;;6.97;3.63;;;10.00;99.90;;;;;;5074355;28;20814;-73
2023/03/26 04:14:10;;;;;;;10.35;3.75;;;9.90;99.90;;;;;;5076745;28;20546;-73
2023/03/26 04:16:36;;;;;;;8.23;3.78;;;10.00;99.90;;;;;;5074893;28;20417;-73
2023/03/26 04:19:03;;;;;;;7.55;3.80;;;10.00;99.90;;;;;;5055407;28;20410;-73
2023/03/26 04:21:30;;;;;;;6.38;3.60;;;9.90;99.90;;;;;;5068042;28;20409;-73
2023/03/26 04:23:57;;;;;;;6.75;3.78;;;9.90;99.90;;;;;;5072196;28;20424;-73
2023/03/26 04:26:23;;;;;;;8.38;3.80;;;10.00;99.90;;;;;;5077655;28;20458;-73
2023/03/26 04:28:58;;;;;;;5.40;3.60;;;9.90;99.90;;;;;;5074235;28;20572;-73
2023/03/26 04:31:29;;;;;;;7.35;3.67;;;9.90;99.90;;;;;;5078512;28;20415;-73
2023/03/26 04:34:25;;;;;;;7.25;3.90;;;9.90;99.90;;;;;;5084071;28;20415;-73
2023/03/26 04:36:53;;;;;;;7.25;3.58;;;10.00;99.90;;;;;;5069637;28;20824;-73
2023/03/26 04:39:22;;;;;;;7.20;3.90;;;10.00;99.90;;;;;;5070202;28;20426;-73
2023/03/26 04:41:49;;;;;;;6.70;3.88;;;10.00;99.90;;;;;;5071987;28;20408;-73
2023/03/26 04:44:15;;;;;;;6.65;3.70;;;10.10;99.90;;;;;;5052573;28;20873;-73
2023/03/26 04:46:43;;;;;;;7.13;3.63;;;10.10;99.90;;;;;;5071311;28;21090;-73
2023/03/26 04:49:12;;;;;;;6.80;3.55;;;10.10;99.90;;;;;;5077150;28;20428;-73
2023/03/26 04:51:45;;;;;;;5.90;3.83;;;10.10;99.90;;;;;;5074926;28;21023;-73
2023/03/26 04:54:15;;;;;;;8.40;3.70;;;10.10;99.90;;;;;;5078164;28;20828;-73
2023/03/26 04:56:58;;;;;;;8.48;3.85;;;10.20;99.90;;;;;;5083478;28;20417;-73
2023/03/26 04:59:35;;;;;;;5.83;3.33;;;10.20;99.90;;;;;;5080121;28;20510;-73
2023/03/26 05:02:05;;;;;;;7.22;3.95;;;10.30;99.90;;;;;;5071820;28;20419;-73
2023/03/26 05:04:35;;;;;;;7.53;3.80;;;10.30;99.90;;;;;;5072125;28;20426;-73
2023/03/26 05:07:04;;;;;;;6.70;3.58;;;10.30;99.90;;;;;;5075341;28;21060;-73
2023/03/26 05:09:31;;;;;;;7.30;3.65;;;10.40;99.90;;;;;;5084570;28;20833;-73
2023/03/26 05:12:00;;;;;;;7.13;3.97;;;10.60;99.90;;;;;;5073786;28;20426;-73
2023/03/26 05:14:26;;;;;;;7.85;3.63;;;10.70;99.90;;;;;;5083001;28;20426;-73
2023/03/26 05:16:53;;;;;;;6.53;3.58;;;10.70;99.90;;;;;;5076192;28;20896;-73
2023/03/26 05:19:20;;;;;;;5.50;3.40;;;10.90;99.90;;;;;;5080197;28;20762;-73
2023/03/26 05:21:46;;;;;;;5.13;3.60;;;11.00;99.90;;;;;;5056464;28;20483;-73
2023/03/26 05:24:12;;;;;;;7.82;3.72;;;11.10;99.90;;;;;;5072559;28;22133;-73
2023/03/26 05:26:38;;;;;;;6.22;3.50;;;11.10;99.90;;;;;;5074001;28;20811;-73
2023/03/26 05:29:04;;;;;;;5.18;3.67;;;11.20;99.90;;;;;;5074484;28;20471;-73
2023/03/26 05:31:31;;;;;;;5.20;3.55;;;11.30;99.90;;;;;;5077260;28;20484;-73
2023/03/26 05:33:59;;;;;;;5.07;3.58;;;11.40;99.90;;;;;;5079037;28;20912;-73
2023/03/26 05:36:27;;;;;;;6.32;3.65;;;11.50;99.90;;;;;;5071299;28;21440;-73
2023/03/26 05:38:53;;;;;;;5.53;3.60;;;11.50;99.90;;;;;;5077627;28;21087;-73
2023/03/26 05:41:19;;;;;;;6.38;4.00;;;11.60;99.90;;;;;;5077742;28;20505;-73
2023/03/26 05:43:49;;;;;;;9.00;3.78;;;11.60;99.90;;;;;;5075702;28;20437;-73
2023/03/26 05:46:15;;;;;;;5.85;4.07;;;11.70;99.90;;;;;;5076663;28;20425;-73
2023/03/26 05:48:41;;;;;;;8.90;4.45;;;11.80;99.90;;;;;;5083642;28;20951;-73
2023/03/26 05:51:08;;;;;;;8.15;4.10;;;11.80;99.90;;;;;;5072026;28;20446;-73
2023/03/26 05:53:36;;;;;;;6.38;3.97;;;11.80;99.90;;;;;;5076270;28;20451;-73
2023/03/26 05:56:03;;;;;;;6.68;4.00;;;11.90;99.90;;;;;;5075204;28;20409;-73
2023/03/26 05:58:33;;;;;;;8.63;4.93;;;11.90;99.90;;;;;;5081233;28;20757;-73
2023/03/26 06:01:09;;;;;;;9.45;4.70;;;12.00;99.90;;;;;;5084687;28;20442;-73
2023/03/26 06:03:38;;;;;;;6.30;4.70;;;12.10;99.90;;;;;;5089160;27;20416;-73
2023/03/26 06:06:16;;;;;;;10.32;4.88;;;12.20;99.90;;;;;;5077787;28;20847;-73
2023/03/26 06:08:49;;;;;;;7.80;4.80;;;12.30;99.90;;;;;;5079926;28;20432;-73
2023/03/26 06:11:18;;;;;;;6.97;4.70;;;12.30;99.90;;;;;;5083066;28;20449;-73
2023/03/26 06:13:45;;;;;;;8.50;5.07;;;12.40;99.90;;;;;;5079997;28;20495;-73
2023/03/26 06:16:13;;;;;;;7.05;4.63;;;12.50;99.90;;;;;;5081950;28;20425;-73
2023/03/26 06:18:39;;;;;;;7.38;4.72;;;12.60;99.90;;;;;;5061391;28;20413;-73
2023/03/26 06:21:06;;;;;;;7.55;4.82;;;12.60;99.90;;;;;;5069662;28;20419;-73
2023/03/26 06:23:33;;;;;;;8.60;5.05;;;12.70;99.90;;;;;;5078593;28;20509;-73
2023/03/26 06:26:02;;;;;;;10.82;5.30;;;12.80;99.90;;;;;;5076855;28;20421;-73
2023/03/26 06:28:28;;;;;;;9.40;5.25;;;12.80;99.90;;;;;;5076347;28;20705;-73
2023/03/26 06:31:00;;;;;;;10.60;5.28;;;13.00;99.90;;;;;;5069552;28;21136;-73
2023/03/26 06:33:27;;;;;;;7.32;5.35;;;13.10;99.90;;;;;;5073696;28;20424;-74
2023/03/26 06:35:53;;;;;;;11.13;6.78;;;13.10;99.90;;;;;;5071648;28;20827;-73
2023/03/26 06:38:20;;;;;;;13.32;7.78;;;13.20;99.90;;;;;;5083749;27;20699;-73
2023/03/26 06:40:46;;;;;;;10.17;7.43;;;13.40;99.90;;;;;;5069411;28;20443;-73
2023/03/26 06:43:12;;;;;;;11.27;7.32;;;13.50;99.90;;;;;;5069955;28;20408;-73
2023/03/26 06:45:39;;;;;;;10.90;7.47;;;13.50;99.90;;;;;;5056397;28;20964;-73
2023/03/26 06:48:05;;;;;;;10.57;6.97;;;13.60;99.90;;;;;;5070872;28;20418;-73
2023/03/26 06:50:32;;;;;;;10.88;7.45;;;13.60;99.90;;;;;;5084064;27;20412;-73
2023/03/26 06:52:58;;;;;;;10.43;7.10;;;13.60;99.90;;;;;;5074010;28;20411;-73
2023/03/26 06:55:25;;;;;;;10.52;7.22;;;13.70;99.90;;;;;;5069884;28;20407;-73
2023/03/26 06:57:54;;;;;;;11.30;6.65;;;13.80;99.90;;;;;;5070685;28;20410;-73
2023/03/26 07:00:21;;;;;;;11.60;7.27;;;13.80;99.90;;;;;;5078635;28;20450;-73
2023/03/26 07:02:50;;;;;;;11.23;6.20;;;13.90;99.90;;;;;;5069441;28;20459;-73
2023/03/26 07:05:16;;;;;;;11.35;7.28;;;13.90;99.90;;;;;;5072430;28;20406;-73
2023/03/26 07:07:42;;;;;;;13.30;8.02;;;14.10;99.90;;;;;;5071883;28;21128;-73
2023/03/26 07:10:09;;;;;;;14.23;8.25;;;14.30;99.90;;;;;;5100380;27;20403;-73
2023/03/26 07:12:35;;;;;;;15.13;7.80;;;14.40;99.90;;;;;;5069775;28;20503;-73
2023/03/26 07:15:04;;;;;;;12.88;7.90;;;14.40;99.90;;;;;;5072455;28;20430;-73
2023/03/26 07:17:30;;;;;;;12.47;7.60;;;14.50;99.90;;;;;;5070956;28;21021;-73
2023/03/26 07:19:57;;;;;;;12.70;7.60;;;14.60;99.90;;;;;;5069436;28;20410;-73
2023/03/26 07:22:24;;;;;;;15.50;7.85;;;14.70;99.90;;;;;;5101979;27;20416;-73
2023/03/26 07:24:51;;;;;;;12.02;7.15;;;14.80;99.90;;;;;;5070278;28;20431;-73
2023/03/26 07:27:26;;;;;;;12.05;7.25;;;14.60;99.90;;;;;;5070034;28;20401;-74
2023/03/26 07:30:19;;;;;;;13.52;7.07;;;14.40;99.90;;;;;;5071542;28;20791;-74
2023/03/26 07:32:51;;;;;;;13.43;6.90;;;14.60;99.90;;;;;;5070110;28;20790;-74
2023/03/26 07:35:39;;;;;;;9.73;6.28;;;14.60;99.90;;;;;;5073337;28;20452;-74
2023/03/26 07:38:24;;;;;;;13.48;7.00;;;14.50;99.90;;;;;;5073760;28;20512;-74
2023/03/26 07:40:57;;;;;;;12.07;6.65;;;14.90;99.90;;;;;;5074001;28;21507;-74
2023/03/26 07:43:32;;;;;;;11.38;6.10;;;14.90;99.90;;;;;;5070508;28;20473;-74
2023/03/26 07:45:59;;;;;;;12.80;6.50;;;14.60;99.90;;;;;;5068350;28;20888;-74
2023/03/26 07:48:39;;;;;;;14.48;6.63;;;14.80;99.90;;;;;;5072804;28;20505;-73
2023/03/26 07:51:08;;;;;;;14.27;6.38;;;14.90;99.90;;;;;;5101628;27;20421;-74
2023/03/26 07:53:35;;;;;;;12.95;6.55;;;15.00;99.90;;;;;;5077725;28;20445;-73
2023/03/26 07:56:18;;;;;;;14.38;7.55;;;14.70;99.90;;;;;;5069267;28;20418;-73
2023/03/26 07:58:50;;;;;;;15.40;7.68;;;14.90;99.90;;;;;;5073389;28;20423;-74
2023/03/26 08:01:36;;;;;;;12.02;6.90;;;15.10;99.90;;;;;;5069208;28;20419;-74
2023/03/26 08:04:39;;;;;;;14.38;6.60;;;15.20;99.90;;;;;;5050771;28;20467;-74
2023/03/26 08:07:38;;;;;;;11.53;6.33;;;15.20;99.90;;;;;;5070761;28;21005;-74
2023/03/26 08:10:30;;;;;;;14.50;6.43;;;15.10;99.90;;;;;;5065705;28;20417;-74
2023/03/26 08:13:21;;;;;;;11.68;6.47;;;15.00;99.90;;;;;;5073320;28;20415;-74
2023/03/26 08:16:22;;;;;;;10.98;6.20;;;15.20;99.90;;;;;;5074347;28;20411;-74
2023/03/26 08:19:24;;;;;;;13.20;6.00;;;15.30;99.90;;;;;;5071225;28;20989;-74
2023/03/26 08:21:58;;;;;;;11.93;5.90;;;15.50;99.90;;;;;;5073263;28;20486;-75
2023/03/26 08:25:10;;;;;;;11.63;5.22;;;15.30;99.90;;;;;;5070802;28;20954;-74
2023/03/26 08:27:58;;;;;;;9.63;5.30;;;15.20;99.90;;;;;;5073147;28;20437;-74
2023/03/26 08:30:26;;;;;;;11.52;5.40;;;15.20;99.90;;;;;;5043123;28;20406;-74
2023/03/26 08:33:20;;;;;;;12.85;5.07;;;15.30;99.90;;;;;;5078083;28;20485;-74
2023/03/26 08:35:48;;;;;;;11.27;4.95;;;15.40;99.90;;;;;;5094715;27;20518;-74
2023/03/26 08:38:18;;;;;;;9.82;4.78;;;15.70;99.90;;;;;;5069562;28;20410;-74
2023/03/26 08:41:24;;;;;;;9.55;4.65;;;15.80;99.90;;;;;;5069761;28;20424;-74
2023/03/26 08:44:21;;;;;;;11.25;5.18;;;15.70;99.90;;;;;;5071587;28;20498;-74
2023/03/26 08:47:55;;;;;;;9.95;4.70;;;15.90;99.90;;;;;;5076091;28;20409;-74
2023/03/26 08:51:06;;;;;;;14.98;5.97;;;16.00;99.90;;;;;;5068557;28;20555;-74
2023/03/26 08:54:11;;;;;;;12.38;4.75;;;16.30;99.90;;;;;;5072230;28;20972;-74
2023/03/26 08:57:31;;;;;;;14.30;5.13;;;16.70;99.90;;;;;;5069320;28;20408;-74
2023/03/26 09:00:23;;;;;;;10.25;5.28;;;16.80;99.90;;;;;;5069109;28;20414;-74
2023/03/26 09:03:31;;;;;;;11.27;5.30;;;16.70;99.90;;;;;;5069307;28;20952;-74
2023/03/26 09:06:23;;;;;;;10.18;5.30;;;17.00;99.90;;;;;;5066989;28;20398;-74
2023/03/26 09:09:09;;;;;;;11.53;5.17;;;17.10;99.90;;;;;;5063999;28;20514;-74
2023/03/26 09:11:59;;;;;;;13.60;5.50;;;16.80;99.90;;;;;;5068378;28;20424;-74
2023/03/26 09:15:12;;;;;;;12.23;5.87;;;16.90;99.90;;;;;;5053923;28;20418;-75
2023/03/26 09:18:02;;;;;;;9.75;5.00;;;17.20;99.90;;;;;;5099698;28;20486;-75
2023/03/26 09:21:20;;;;;;;12.95;5.30;;;17.30;99.90;;;;;;5071167;28;20413;-74
2023/03/26 09:24:31;;;;;;;13.82;5.32;;;17.40;99.90;;;;;;5074547;28;20501;-75
2023/03/26 09:27:37;;;;;;;10.93;4.80;;;17.90;99.90;;;;;;5077018;28;20398;-74
2023/03/26 09:30:36;;;;;;;9.80;4.57;;;18.00;99.90;;;;;;5088882;28;20407;-75
2023/03/26 09:33:58;;;;;;;10.35;4.80;;;17.80;99.90;;;;;;5079967;28;20425;-74
2023/03/26 09:36:56;;;;;;;14.63;5.30;;;17.90;99.90;;;;;;5114472;27;20458;-74
2023/03/26 09:39:47;;;;;;;13.05;5.13;;;18.30;99.90;;;;;;5075477;28;20408;-74
2023/03/26 09:42:37;;;;;;;15.43;5.07;;;18.60;99.90;;;;;;5110645;27;20498;-75
2023/03/26 09:45:40;;;;;;;11.40;5.03;;;18.80;99.90;;;;;;5074822;28;21037;-75
2023/03/26 09:48:54;;;;;;;9.65;4.40;;;19.00;99.90;;;;;;5075307;28;20617;-75
2023/03/26 09:51:35;;;;;;;13.55;5.35;;;18.90;99.90;;;;;;5078701;28;20816;-75
2023/03/26 09:54:26;;;;;;;13.98;5.38;;;18.50;99.90;;;;;;5078441;28;20945;-75
2023/03/26 09:57:41;;;;;;;11.27;4.60;;;18.20;99.90;;;;;;5112163;27;20403;-75
2023/03/26 10:00:40;;;;;;;8.02;4.22;;;18.80;99.90;;;;;;5073457;28;21182;-74
2023/03/26 10:04:11;;;;;;;7.20;3.25;;;20.30;99.90;;;;;;5107646;27;20399;-75
2023/03/26 10:07:02;;;;;;;13.20;4.32;;;24.90;99.90;;;;;;5029869;28;20753;-75
2023/03/26 10:10:03;;;;;;;13.20;4.22;;;27.70;99.90;;;;;;5063394;28;20412;-75
2023/03/26 10:13:11;;;;;;;10.85;4.07;;;25.80;99.90;;;;;;5116349;27;20459;-75
2023/03/26 10:16:01;;;;;;;11.23;4.22;;;23.40;99.90;;;;;;5069374;28;20443;-75
2023/03/26 10:18:34;;;;;;;10.03;4.50;;;21.50;99.90;;;;;;5077077;28;20848;-75
2023/03/26 10:21:21;;;;;;;11.57;4.38;;;20.70;99.90;;;;;;5078722;28;20419;-74
2023/03/26 10:24:08;;;;;;;13.38;4.85;;;20.50;99.90;;;;;;5081835;28;20506;-75
2023/03/26 10:27:15;;;;;;;16.10;4.63;;;20.40;99.90;;;;;;5074000;28;20444;-75
2023/03/26 10:30:36;;;;;;;12.75;4.45;;;23.00;99.90;;;;;;5081136;28;20402;-75
2023/03/26 10:33:16;;;;;;;8.45;4.13;;;24.90;99.90;;;;;;5090270;28;20398;-75
2023/03/26 10:35:48;;;;;;;12.20;4.03;;;24.10;99.90;;;;;;5074183;28;20418;-74
2023/03/26 10:39:02;;;;;;;9.85;3.60;;;22.20;99.90;;;;;;5103223;27;20787;-74
2023/03/26 10:41:53;;;;;;;8.93;3.80;;;20.50;99.90;;;;;;5074665;28;20449;-74
2023/03/26 10:44:46;;;;;;;10.90;4.28;;;19.60;99.90;;;;;;5109391;27;20478;-75
2023/03/26 10:47:40;;;;;;;12.15;4.57;;;19.30;99.90;;;;;;5079242;28;20453;-75
2023/03/26 10:50:18;;;;;;;9.98;3.85;;;19.20;99.90;;;;;;5080897;28;20491;-75
2023/03/26 10:52:58;;;;;;;13.43;4.30;;;19.20;99.90;;;;;;5105122;27;20449;-75
2023/03/26 10:55:44;;;;;;;11.55;4.20;;;19.10;99.90;;;;;;5078193;28;20816;-75
2023/03/26 10:58:20;;;;;;;11.20;3.97;;;18.90;99.90;;;;;;5105916;27;21091;-75
2023/03/26 11:01:17;;;;;;;11.38;4.43;;;18.80;99.90;;;;;;5081333;28;21005;-75
2023/03/26 11:03:53;;;;;;;7.10;3.97;;;18.90;99.90;;;;;;5054563;28;20411;-75
2023/03/26 11:06:49;;;;;;;11.75;3.95;;;18.70;99.90;;;;;;5078536;28;20445;-74
2023/03/26 11:09:53;;;;;;;9.43;3.80;;;18.80;99.90;;;;;;5073069;28;20434;-75
2023/03/26 11:12:56;;;;;;;11.55;4.15;;;18.80;99.90;;;;;;5074182;28;20516;-75
2023/03/26 11:15:58;;;;;;;13.00;3.92;;;18.60;99.90;;;;;;5075216;28;21017;-75
2023/03/26 11:18:37;;;;;;;9.43;3.53;;;18.50;99.90;;;;;;5072032;28;20471;-75
2023/03/26 11:21:37;;;;;;;9.50;3.47;;;18.50;99.90;;;;;;5076892;28;21011;-74
2023/03/26 11:24:58;;;;;;;9.38;3.75;;;18.40;99.90;;;;;;5073233;28;20493;-74
2023/03/26 11:27:53;;;;;;;14.90;4.07;;;18.30;99.90;;;;;;5072938;28;20396;-75
2023/03/26 11:30:40;;;;;;;8.85;3.60;;;18.70;99.90;;;;;;5077747;28;20392;-74
2023/03/26 11:33:20;;;;;;;9.27;4.00;;;18.70;99.90;;;;;;5061152;28;20406;-75
2023/03/26 11:35:50;;;;;;;8.48;3.75;;;18.90;99.90;;;;;;5075471;28;20507;-75
2023/03/26 11:38:36;;;;;;;7.87;3.50;;;19.10;99.90;;;;;;5070668;28;20870;-75
2023/03/26 11:41:19;;;;;;;9.05;3.78;;;19.30;99.90;;;;;;5073603;28;20444;-75
2023/03/26 11:43:53;;;;;;;8.10;3.70;;;18.90;99.90;;;;;;5080965;28;20404;-75
2023/03/26 11:46:23;;;;;;;10.82;3.83;;;18.60;99.90;;;;;;5103380;27;20412;-75
2023/03/26 11:48:58;;;;;;;8.93;3.60;;;18.50;99.90;;;;;;5081511;28;20409;-74
2023/03/26 11:51:35;;;;;;;10.13;3.65;;;19.00;99.90;;;;;;5109569;27;20402;-74
2023/03/26 11:54:03;;;;;;;8.32;3.80;;;19.00;99.90;;;;;;5085635;28;20489;-75
2023/03/26 11:56:37;;;;;;;9.90;3.80;;;19.10;99.90;;;;;;5059721;28;20410;-75
2023/03/26 11:59:45;;;;;;;8.98;3.72;;;19.10;99.90;;;;;;5069093;28;20432;-74
2023/03/26 12:02:23;;;;;;;6.57;3.67;;;19.30;99.90;;;;;;5081186;28;20457;-75
2023/03/26 12:05:13;;;;;;;8.95;3.67;;;19.10;99.90;;;;;;5072817;28;21154;-74
2023/03/26 12:08:01;;;;;;;9.30;4.00;;;18.70;99.90;;;;;;5075514;28;20833;-75
2023/03/26 12:10:36;;;;;;;8.90;3.80;;;18.40;99.90;;;;;;5078795;28;20890;-74
2023/03/26 12:13:44;;;;;;;9.82;4.18;;;18.30;99.90;;;;;;5077380;28;20521;-74
2023/03/26 12:16:16;;;;;;;8.50;3.90;;;18.40;99.90;;;;;;5075991;28;20850;-75
2023/03/26 12:18:46;;;;;;;7.95;3.75;;;18.70;99.90;;;;;;5073389;28;20402;-75
2023/03/26 12:21:18;;;;;;;8.05;3.63;;;18.80;99.90;;;;;;5098804;27;20742;-75
2023/03/26 12:24:03;;;;;;;7.87;3.80;;;18.50;99.90;;;;;;5070507;28;20407;-74
2023/03/26 12:26:43;;;;;;;9.53;3.77;;;18.30;99.90;;;;;;5078048;28;20413;-74
2023/03/26 12:29:16;;;;;;;7.10;3.35;;;17.90;99.90;;;;;;5078697;28;20405;-74
2023/03/26 12:32:02;;;;;;;8.97;3.43;;;17.90;99.90;;;;;;5078152;28;20469;-74
2023/03/26 12:34:35;;;;;;;7.40;3.50;;;17.80;99.90;;;;;;5089163;28;20818;-75
2023/03/26 12:37:04;;;;;;;7.50;3.40;;;17.80;99.90;;;;;;5105128;27;20398;-75
2023/03/26 12:39:36;;;;;;;6.07;3.40;;;17.90;99.90;;;;;;5078784;28;20778;-74
2023/03/26 12:42:06;;;;;;;8.25;3.40;;;18.30;99.90;;;;;;5076301;28;20398;-75
2023/03/26 12:44:54;;;;;;;8.32;3.65;;;18.40;99.90;;;;;;5074763;28;20836;-75
2023/03/26 12:47:31;;;;;;;6.55;3.40;;;18.10;99.90;;;;;;5071778;28;20426;-75
2023/03/26 12:49:58;;;;;;;7.55;3.25;;;18.00;99.90;;;;;;5065424;28;20780;-75
2023/03/26 12:52:59;;;;;;;6.47;3.10;;;18.10;99.90;;;;;;5107108;28;20440;-74
2023/03/26 12:55:52;;;;;;;6.15;3.00;;;18.10;99.90;;;;;;5070681;28;20925;-75
2023/03/26 12:59:00;;;;;;;8.05;3.15;;;17.90;99.90;;;;;;5076357;28;20831;-75
2023/03/26 13:02:01;;;;;;;6.75;2.90;;;17.70;99.90;;;;;;5068303;28;21319;-75
2023/03/26 13:04:59;;;;;;;6.82;3.13;;;17.80;99.90;;;;;;5070775;28;20402;-74
2023/03/26 13:07:50;;;;;;;6.00;2.88;;;17.50;99.90;;;;;;5079127;28;20489;-73
2023/03/26 13:11:20;;;;;;;5.70;2.90;;;17.70;99.90;;;;;;5115120;27;20409;-74
2023/03/26 13:14:11;;;;;;;6.00;3.00;;;17.80;99.90;;;;;;5106510;27;20764;-74
2023/03/26 13:16:55;;;;;;;6.47;2.80;;;17.60;99.90;;;;;;5097121;27;20442;-74
2023/03/26 13:19:39;;;;;;;6.87;2.63;;;17.80;99.90;;;;;;5076399;28;20427;-75
2023/03/26 13:22:29;;;;;;;5.13;2.90;;;17.60;99.90;;;;;;5075583;28;21134;-75
2023/03/26 13:25:44;;;;;;;7.40;2.80;;;17.70;99.90;;;;;;5114348;27;20490;-75
2023/03/26 13:28:28;;;;;;;4.63;2.60;;;17.20;99.90;;;;;;5106132;27;20768;-74
2023/03/26 13:31:48;;;;;;;7.07;2.90;;;17.10;99.90;;;;;;5078705;28;20454;-75
2023/03/26 13:34:39;;;;;;;6.70;2.90;;;17.20;99.90;;;;;;5069584;28;20449;-74
2023/03/26 13:37:29;;;;;;;9.18;3.00;;;17.00;99.90;;;;;;5077276;28;20509;-75
2023/03/26 13:40:47;;;;;;;7.83;3.07;;;17.00;99.90;;;;;;5075407;28;20526;-75
2023/03/26 13:43:31;;;;;;;8.02;3.05;;;16.90;99.90;;;;;;5089335;28;20431;-74